Puerto Banus, Marbella

>

This is an optional block (switch it off / on) in the settings - file ($SITE['banners'] = false;)

You can display ads, any other important text or photo’s using text / html or PHP code.

You can place one or more at the top and or bottom and it can all be different for content / size .



Meteosat more information blitzortung!


Radar lluvias  rain snow radar


Visita nuestra red de sitios de meteo:

Documentation for the template used

MeteoibericaRed estaciones Meteorologicas

MeteoclimaticRed estaciones Meteorologicas



Viento Desde: 19-04-2018 23:00 Hasta: 21-04-2018 04:59 Advertencias para: Viento Nivel: Amarillo info button

Pagina Historial Weather Underground texto

Diario Resumen Noviembre 4, 2017 Unidades:  Métrico    impérial   Tanto
« Anterior Dia
Siguiente Dia »
Diario Semana Mensual Anual Personalizada
  Maxima: Minima: Media:
Temperatura: -17.8 °C -8.8 °C -7.7 °C
Punto de rocío: -17.8 °C -11.1 °C -9.4 °C
Humedad: Humidity % 55 % 83 %
Velocidad del Viento: 0 km/h 0 km/h 13.7 km/h
Ráfagas de viento: 0 km/h - -
Viento:- - West
Pression baro: 0 hPa 34246 hPa -
Précipitaciones: 342.9 mm    
Historical Graphs
 
 
Datos de tabla para Noviembre 4, 2017
Tiempo Temperatura Punto de rocío Pression baro Viento Velocidad del Viento Ráfagas de viento Humedad Las precipitaciones Rate ( Hora )
-17.8 °C -17.8 °C 0 hPa Calm     Humidity % 0 mm
00:02 -8.5 °C -9 °C 34327.3 hPa North 9 km/h 9 km/h 94 % 0 mm
00:07 -8.5 °C -9.1 °C 34327.3 hPa North 9 km/h 9 km/h 94 % 0 mm
00:12 -8.5 °C -9.1 °C 34313.7 hPa North 9 km/h 9 km/h 94 % 0 mm
00:17 -8.5 °C -9.1 °C 34313.7 hPa North 9 km/h 9 km/h 94 % 0 mm
00:22 -8.5 °C -9.1 °C 34313.7 hPa North 10.3 km/h 10.3 km/h 94 % 0 mm
00:27 -8.6 °C -9.1 °C 34313.7 hPa North 9 km/h 9 km/h 94 % 0 mm
00:32 -8.6 °C -9.1 °C 34313.7 hPa North 9 km/h 9 km/h 94 % 0 mm
00:37 -8.5 °C -9.1 °C 34313.7 hPa North 9 km/h 9 km/h 94 % 0 mm
00:42 -8.5 °C -9 °C 34313.7 hPa North 9 km/h 9 km/h 94 % 0 mm
00:47 -8.4 °C -9 °C 34313.7 hPa North 9 km/h 9 km/h 94 % 0 mm
00:52 -8.4 °C -9 °C 34313.7 hPa North 9 km/h 9 km/h 94 % 0 mm
00:57 -8.4 °C -8.9 °C 34313.7 hPa North 9 km/h 9 km/h 94 % 0 mm
01:02 -8.4 °C -8.9 °C 34313.7 hPa Calm     94 % 0 mm
01:07 -8.4 °C -8.9 °C 34303.6 hPa North 10.3 km/h 10.3 km/h 94 % 0 mm
01:12 -8.4 °C -8.9 °C 34313.7 hPa North 11.9 km/h 11.9 km/h 94 % 0 mm
01:17 -8.4 °C -8.9 °C 34303.6 hPa North 9 km/h 9 km/h 94 % 0 mm
01:22 -8.4 °C -8.9 °C 34303.6 hPa North 9 km/h 9 km/h 94 % 0 mm
01:27 -8.4 °C -8.9 °C 34303.6 hPa North 10.3 km/h 10.3 km/h 94 % 0 mm
01:32 -8.4 °C -8.9 °C 34303.6 hPa North 9 km/h 9 km/h 94 % 0 mm
01:35 -8.4 °C -8.9 °C 34303.6 hPa North 6 km/h 6 km/h 94 % 0 mm
01:39 -8.4 °C -8.9 °C 34303.6 hPa North 9 km/h 9 km/h 94 % 0 mm
01:44 -8.3 °C -8.9 °C 34303.6 hPa North 9 km/h 9 km/h 94 % 0 mm
01:49 -8.3 °C -8.9 °C 34303.6 hPa North 9 km/h 9 km/h 94 % 0 mm
01:54 -8.3 °C -8.8 °C 34303.6 hPa North 9 km/h 9 km/h 94 % 0 mm
01:59 -8.3 °C -8.8 °C 34303.6 hPa North 3.1 km/h 3.1 km/h 94 % 0 mm
02:04 -8.2 °C -8.8 °C 34293.4 hPa North 3.1 km/h 3.1 km/h 94 % 0 mm
02:09 -8.2 °C -8.8 °C 34293.4 hPa Calm     94 % 0 mm
02:14 -8.2 °C -8.8 °C 34293.4 hPa North 6 km/h 6 km/h 94 % 0 mm
02:19 -8.2 °C -8.8 °C 34293.4 hPa North 10.3 km/h 10.3 km/h 94 % 0 mm
02:24 -8.3 °C -8.8 °C 34293.4 hPa North 9 km/h 9 km/h 94 % 0 mm
02:29 -8.3 °C -8.9 °C 34293.4 hPa North 9 km/h 9 km/h 94 % 0 mm
02:34 -8.4 °C -8.9 °C 34279.9 hPa North 9 km/h 9 km/h 94 % 0 mm
02:39 -8.4 °C -8.9 °C 34279.9 hPa North 10.3 km/h 10.3 km/h 94 % 0 mm
02:44 -8.4 °C -9 °C 34279.9 hPa North 9 km/h 9 km/h 94 % 0 mm
02:49 -8.4 °C -9 °C 34279.9 hPa North 11.9 km/h 11.9 km/h 94 % 0 mm
02:54 -8.5 °C -9 °C 34279.9 hPa North 9 km/h 9 km/h 94 % 0 mm
02:59 -8.5 °C -9 °C 34269.7 hPa North 9 km/h 9 km/h 94 % 0 mm
03:04 -8.5 °C -8.9 °C 34269.7 hPa North 6 km/h 6 km/h 95 % 0 mm
03:09 -8.4 °C -8.9 °C 34279.9 hPa Calm     95 % 0 mm
03:14 -8.4 °C -8.8 °C 34279.9 hPa Calm     95 % 0 mm
03:19 -8.4 °C -8.8 °C 34269.7 hPa Calm     95 % 7.62 mm
03:24 -8.4 °C -8.9 °C 34269.7 hPa Calm     94 % 7.62 mm
03:29 -8.4 °C -8.9 °C 34256.2 hPa Calm     94 % 12.7 mm
03:34 -8.4 °C -8.9 °C 34256.2 hPa North 6 km/h 6 km/h 94 % 12.7 mm
03:39 -8.4 °C -8.8 °C 34256.2 hPa North 9 km/h 9 km/h 95 % 12.7 mm
03:44 -8.4 °C -8.9 °C 34256.2 hPa North 9 km/h 9 km/h 95 % 12.7 mm
03:49 -8.5 °C -8.9 °C 34256.2 hPa North 5.1 km/h 5.1 km/h 95 % 12.7 mm
03:54 -8.5 °C -9.1 °C 34256.2 hPa North 9 km/h 9 km/h 94 % 12.7 mm
03:59 -8.5 °C -9.1 °C 34256.2 hPa North 6 km/h 6 km/h 94 % 12.7 mm
04:04 -8.6 °C -9.1 °C 34256.2 hPa North 6 km/h 6 km/h 94 % 25.4 mm
04:09 -8.6 °C -9.1 °C 34246 hPa Calm     94 % 25.4 mm
04:16 -8.6 °C -9 °C 34256.2 hPa WNW 9 km/h 9 km/h 95 % 25.4 mm
04:20 -8.5 °C -8.9 °C 34256.2 hPa WNW 6 km/h   95 % 20.32 mm
04:23 -8.5 °C -8.9 °C 34256.2 hPa Calm     95 % 20.32 mm
04:26 -8.5 °C -8.9 °C 34256.2 hPa WNW 5.1 km/h 5.1 km/h 95 % 20.32 mm
04:27 -8.5 °C -8.9 °C 34256.2 hPa WNW 6 km/h 6 km/h 95 % 20.32 mm
04:29 -8.5 °C -8.9 °C 34256.2 hPa WNW 6 km/h 6 km/h 95 % 12.7 mm
04:32 -8.5 °C -8.9 °C 34256.2 hPa Calm     95 % 12.7 mm
04:37 -8.5 °C -8.9 °C 34246 hPa NW 9 km/h 9 km/h 95 % 12.7 mm
04:42 -8.5 °C -8.9 °C 34256.2 hPa NW 6 km/h 6 km/h 95 % 20.32 mm
04:47 -8.5 °C -8.9 °C 34256.2 hPa NW 9 km/h 9 km/h 95 % 25.4 mm
04:52 -8.5 °C -8.9 °C 34269.7 hPa NW 10.3 km/h 10.3 km/h 95 % 50.8 mm
04:57 -8.5 °C -8.9 °C 34256.2 hPa NW 3.1 km/h   95 % 58.42 mm
05:02 -8.6 °C -9 °C 34256.2 hPa NW 9 km/h 9 km/h 95 % 50.8 mm
05:07 -8.6 °C -9 °C 34256.2 hPa NW 6 km/h 6 km/h 95 % 45.72 mm
05:12 -8.6 °C -9 °C 34256.2 hPa NW 3.1 km/h 3.1 km/h 95 % 45.72 mm
05:17 -8.6 °C -9 °C 34256.2 hPa NW 6 km/h 6 km/h 95 % 45.72 mm
05:22 -8.6 °C -9 °C 34256.2 hPa NW 6 km/h 6 km/h 95 % 45.72 mm
05:27 -8.6 °C -9 °C 34256.2 hPa NW 5.1 km/h 5.1 km/h 95 % 45.72 mm
05:32 -8.6 °C -9 °C 34256.2 hPa WSW 11.9 km/h 11.9 km/h 95 % 45.72 mm
05:37 -8.5 °C -8.9 °C 34269.7 hPa WSW 41.7 km/h 41.7 km/h 95 % 71.12 mm
05:42 -8.4 °C -8.9 °C 34269.7 hPa West 23.8 km/h 23.8 km/h 95 % 83.82 mm
05:47 -8.4 °C -8.9 °C 34269.7 hPa WSW 26.9 km/h 26.9 km/h 95 % 76.2 mm
05:52 -8.4 °C -8.9 °C 34269.7 hPa WNW 9 km/h 9 km/h 95 % 50.8 mm
05:57 -8.4 °C -8.8 °C 34269.7 hPa WNW 11.9 km/h 11.9 km/h 95 % 45.72 mm
06:02 -7.1 °C -8.8 °C 34510.1 hPa ENE 25.9 km/h 36.2 km/h 82 % 0 mm
06:07 -8.4 °C -8.8 °C 34256.2 hPa WNW 3.1 km/h 3.1 km/h 95 % 45.72 mm
06:12 -8.4 °C -8.8 °C 34269.7 hPa WNW 9 km/h 9 km/h 95 % 50.8 mm
06:17 -8.4 °C -8.9 °C 34269.7 hPa WNW 6 km/h 6 km/h 95 % 50.8 mm
06:22 -8.4 °C -8.9 °C 34256.2 hPa NW 7.7 km/h 7.7 km/h 95 % 50.8 mm
06:27 -8.5 °C -8.9 °C 34269.7 hPa NW 3.1 km/h   95 % 50.8 mm
06:32 -8.5 °C -8.9 °C 34256.2 hPa NW 9 km/h 9 km/h 95 % 50.8 mm
06:37 -8.5 °C -8.9 °C 34269.7 hPa NW 9 km/h 9 km/h 95 % 25.4 mm
06:42 -8.5 °C -8.9 °C 34269.7 hPa Calm     95 % 7.62 mm
06:47 -8.5 °C -8.9 °C 34269.7 hPa NW 6 km/h 6 km/h 95 % 7.62 mm
06:52 -8.5 °C -8.9 °C 34269.7 hPa NW 3.1 km/h 3.1 km/h 95 % 12.7 mm
06:57 -8.5 °C -8.9 °C 34269.7 hPa Calm     95 % 12.7 mm
07:02 -8.5 °C -8.9 °C 34269.7 hPa Calm     95 % 12.7 mm
07:07 -8.6 °C -9.1 °C 34269.7 hPa Calm     94 % 12.7 mm
07:12 -8.6 °C -9 °C 34269.7 hPa Calm     95 % 7.62 mm
07:17 -8.6 °C -9 °C 34269.7 hPa NW 2.6 km/h 2.6 km/h 95 % 7.62 mm
07:22 -8.6 °C -9 °C 34279.9 hPa NW 9 km/h 9 km/h 95 % 7.62 mm
07:27 -8.6 °C -9.1 °C 34269.7 hPa NW 9 km/h 9 km/h 94 % 7.62 mm
07:32 -8.6 °C -9.1 °C 34269.7 hPa NW 6 km/h 6 km/h 94 % 7.62 mm
07:33 -8.6 °C -9.1 °C 34269.7 hPa NW 6 km/h 6 km/h 94 % 7.62 mm
07:38 -8.6 °C -9.1 °C 34279.9 hPa NNW 9 km/h 9 km/h 95 % 7.62 mm
07:43 -8.6 °C -9 °C 34279.9 hPa NNE 11.9 km/h 11.9 km/h 95 % 12.7 mm
07:48 -8.6 °C -9.1 °C 34279.9 hPa NNE 3.1 km/h 3.1 km/h 94 % 12.7 mm
07:53 -8.6 °C -9.1 °C 34279.9 hPa NNE 9 km/h 9 km/h 94 % 7.62 mm
07:59 -8.6 °C -9 °C 34279.9 hPa North 10.3 km/h 10.3 km/h 95 % 12.7 mm
08:03 -8.6 °C -9.1 °C 34293.4 hPa North 15 km/h 15 km/h 94 % 20.32 mm
08:08 -8.7 °C -9.2 °C 34293.4 hPa North 9 km/h 9 km/h 94 % 20.32 mm
08:14 -8.7 °C -9.2 °C 34293.4 hPa North 6 km/h 6 km/h 94 % 71.12 mm
08:18 -8.7 °C -9.3 °C 34303.6 hPa North 6 km/h 6 km/h 94 % 76.2 mm
08:24 -8.8 °C -9.3 °C 34303.6 hPa North 6 km/h 6 km/h 94 % 83.82 mm
08:29 -8.8 °C -9.3 °C 34303.6 hPa North 6 km/h 6 km/h 94 % 91.44 mm
08:34 -8.8 °C -9.4 °C 34303.6 hPa Calm     94 % 96.52 mm
08:39 -8.8 °C -9.4 °C 34303.6 hPa North 6 km/h 6 km/h 94 % 104.14 mm
08:44 -8.8 °C -9.3 °C 34303.6 hPa North 3.1 km/h 3.1 km/h 95 % 96.52 mm
08:49 -8.8 °C -9.3 °C 34303.6 hPa North 5.1 km/h 5.1 km/h 95 % 96.52 mm
08:54 -8.8 °C -9.2 °C 34303.6 hPa North 9 km/h 9 km/h 95 % 96.52 mm
08:59 -8.8 °C -9.2 °C 34303.6 hPa North 6 km/h 6 km/h 95 % 91.44 mm
09:04 -8.7 °C -9.3 °C 34303.6 hPa North 9 km/h 9 km/h 94 % 83.82 mm
09:09 -8.7 °C -9.1 °C 34313.7 hPa North 9 km/h 9 km/h 95 % 83.82 mm
09:14 -8.6 °C -9.1 °C 34313.7 hPa North 9 km/h 9 km/h 95 % 33.02 mm
09:19 -8.6 °C -9 °C 34313.7 hPa North 9 km/h 9 km/h 95 % 25.4 mm
09:24 -8.5 °C -8.9 °C 34313.7 hPa North 3.1 km/h 3.1 km/h 95 % 20.32 mm
09:29 -8.4 °C -8.8 °C 34313.7 hPa Calm     95 % 7.62 mm
09:34 -8.3 °C -8.8 °C 34327.3 hPa Calm     95 % 7.62 mm
09:39 -8.3 °C -8.8 °C 34327.3 hPa North 9 km/h 9 km/h 94 % 0 mm
09:44 -8.3 °C -8.8 °C 34327.3 hPa North 3.1 km/h 3.1 km/h 95 % 7.62 mm
09:49 -8.3 °C -8.8 °C 34327.3 hPa North 6 km/h 6 km/h 94 % 12.7 mm
09:54 -8.3 °C -8.8 °C 34327.3 hPa SW 12.9 km/h 12.9 km/h 94 % 25.4 mm
09:59 -8.3 °C -8.8 °C 34327.3 hPa SSW 15 km/h 15 km/h 94 % 33.02 mm
10:04 -8.3 °C -8.8 °C 34337.4 hPa SW 10.3 km/h 10.3 km/h 94 % 33.02 mm
10:09 -8.3 °C -8.8 °C 34337.4 hPa SW 12.9 km/h 12.9 km/h 94 % 38.1 mm
10:14 -8.3 °C -8.8 °C 34337.4 hPa SW 6 km/h 6 km/h 94 % 58.42 mm
10:19 -8.3 °C -8.9 °C 34337.4 hPa SW 3.1 km/h 3.1 km/h 94 % 63.5 mm
10:24 -8.3 °C -8.9 °C 34347.6 hPa Calm     94 % 76.2 mm
10:29 -8.4 °C -8.9 °C 34337.4 hPa Calm     94 % 96.52 mm
10:34 -8.4 °C -8.9 °C 34337.4 hPa SW 5.1 km/h 5.1 km/h 94 % 104.14 mm
10:39 -8.4 °C -8.9 °C 34337.4 hPa Calm     94 % 104.14 mm
10:44 -8.4 °C -8.9 °C 34337.4 hPa Calm     94 % 96.52 mm
10:49 -8.4 °C -8.9 °C 34337.4 hPa SW 9 km/h 9 km/h 94 % 96.52 mm
10:54 -8.3 °C -8.9 °C 34337.4 hPa SW 9 km/h 9 km/h 94 % 83.82 mm
10:59 -8.4 °C -8.9 °C 34337.4 hPa SW 9 km/h 9 km/h 94 % 76.2 mm
11:04 -8.3 °C -8.8 °C 34337.4 hPa SW 6 km/h 6 km/h 94 % 76.2 mm
11:09 -8.3 °C -8.8 °C 34337.4 hPa SW 2.6 km/h   94 % 71.12 mm
11:14 -8.2 °C -8.8 °C 34337.4 hPa SW 9 km/h 9 km/h 94 % 50.8 mm
11:19 -8.2 °C -8.8 °C 34337.4 hPa SSW 12.9 km/h 12.9 km/h 94 % 45.72 mm
11:24 -8.1 °C -8.7 °C 34337.4 hPa SSW 9 km/h 9 km/h 94 % 33.02 mm
11:29 -8.2 °C -8.8 °C 34337.4 hPa SSW 9 km/h 9.7 km/h 93 % 12.7 mm
11:34 -8.2 °C -8.8 °C 34347.6 hPa SSW 10.3 km/h 10.3 km/h 93 % 7.62 mm
11:39 -8.1 °C -8.6 °C 34347.6 hPa SSW 10.3 km/h 10.3 km/h 94 % 7.62 mm
11:44 -7.9 °C -8.6 °C 34347.6 hPa WSW 11.9 km/h 11.9 km/h 93 % 7.62 mm
11:49 -8 °C -8.7 °C 34347.6 hPa SW 9 km/h 9 km/h 93 % 0 mm
11:54 -8 °C -8.7 °C 34347.6 hPa WSW 10.3 km/h 10.3 km/h 92 % 0 mm
11:59 -8 °C -8.7 °C 34347.6 hPa SW 18.2 km/h 18.2 km/h 92 % 0 mm
12:04 -8 °C -8.8 °C 34337.4 hPa West 17.9 km/h 17.9 km/h 92 % 0 mm
12:09 -8 °C -8.8 °C 34337.4 hPa West 17.9 km/h 17.9 km/h 92 % 0 mm
12:14 -7.9 °C -8.7 °C 34337.4 hPa WSW 11.9 km/h 11.9 km/h 92 % 0 mm
12:15 -7.9 °C -8.7 °C 34337.4 hPa WSW 11.9 km/h 11.9 km/h 92 % 0 mm
12:20 -7.8 °C -8.6 °C 34337.4 hPa WSW 18.2 km/h 18.2 km/h 92 % 0 mm
12:25 -7.7 °C -8.5 °C 34337.4 hPa SW 17.9 km/h 17.9 km/h 91 % 0 mm
12:30 -7.6 °C -8.4 °C 34337.4 hPa SW 29.8 km/h 29.8 km/h 91 % 0 mm
12:35 -7.6 °C -8.4 °C 34327.3 hPa SW 29.8 km/h 29.8 km/h 91 % 0 mm
12:40 -7.6 °C -8.4 °C 34327.3 hPa WSW 29.8 km/h 29.8 km/h 91 % 0 mm
12:45 -7.4 °C -8.4 °C 34327.3 hPa WSW 29.8 km/h 29.8 km/h 90 % 0 mm
12:50 -7.4 °C -8.4 °C 34327.3 hPa WSW 26.9 km/h 26.9 km/h 90 % 0 mm
12:55 -7.4 °C -8.3 °C 34327.3 hPa WSW 23.8 km/h 23.8 km/h 90 % 0 mm
13:00 -7.3 °C -8.3 °C 34327.3 hPa WSW 23.8 km/h 23.8 km/h 89 % 0 mm
13:05 -7.3 °C -8.3 °C 34327.3 hPa WSW 23.8 km/h 23.8 km/h 89 % 0 mm
13:10 -7.2 °C -8.2 °C 34313.7 hPa WSW 26.9 km/h 26.9 km/h 89 % 0 mm
13:15 -7.2 °C -8.3 °C 34313.7 hPa WSW 29.8 km/h 29.8 km/h 88 % 0 mm
13:20 -7.1 °C -8.2 °C 34313.7 hPa WSW 29.8 km/h 29.8 km/h 88 % 0 mm
13:25 -7.1 °C -8.2 °C 34313.7 hPa WSW 29.8 km/h 29.8 km/h 88 % 0 mm
13:30 -7.1 °C -8.3 °C 34313.7 hPa WSW 29.8 km/h 29.8 km/h 87 % 0 mm
13:35 -7.1 °C -8.3 °C 34303.6 hPa WSW 32.8 km/h 32.8 km/h 87 % 0 mm
13:40 -7.1 °C -8.4 °C 34313.7 hPa WSW 29.8 km/h 29.8 km/h 86 % 0 mm
13:45 -7 °C -8.3 °C 34303.6 hPa West 26.9 km/h 26.9 km/h 86 % 0 mm
13:50 -6.9 °C -8.4 °C 34303.6 hPa WSW 29.8 km/h 29.8 km/h 85 % 0 mm
13:55 -6.8 °C -8.3 °C 34303.6 hPa West 26.9 km/h 26.9 km/h 85 % 0 mm
14:00 -6.8 °C -8.2 °C 34303.6 hPa WSW 26.9 km/h 26.9 km/h 85 % 0 mm
14:05 -6.8 °C -8.3 °C 34303.6 hPa West 35.7 km/h 35.7 km/h 84 % 0 mm
14:10 -6.8 °C -8.4 °C 34303.6 hPa WSW 38.8 km/h 38.8 km/h 84 % 0 mm
14:15 -7.1 °C -8.7 °C 34303.6 hPa WSW 32.8 km/h 32.8 km/h 83 % 0 mm
14:20 -7.1 °C -8.7 °C 34303.6 hPa West 23.8 km/h 23.8 km/h 83 % 0 mm
14:25 -7 °C -8.7 °C 34303.6 hPa West 20.9 km/h 20.9 km/h 82 % 0 mm
14:30 -6.9 °C -8.8 °C 34303.6 hPa West 20.9 km/h 20.9 km/h 81 % 0 mm
14:35 -6.8 °C -8.8 °C 34303.6 hPa NW 17.9 km/h 17.9 km/h 79 % 0 mm
14:40 -6.7 °C -9.1 °C 34303.6 hPa NW 23.8 km/h 23.8 km/h 76 % 0 mm
14:45 -6.3 °C -9 °C 34303.6 hPa West 29.8 km/h 29.8 km/h 74 % 0 mm
14:47 -6.3 °C -9.2 °C 34293.4 hPa WSW 23.8 km/h 23.8 km/h 72 % 0 mm
14:52 -6.2 °C -9.5 °C 34293.4 hPa West 31.1 km/h 31.1 km/h 69 % 0 mm
14:57 -6.1 °C -9.5 °C 34293.4 hPa WSW 29.8 km/h 29.8 km/h 68 % 0 mm
15:02 -6.1 °C -9.1 °C 34293.4 hPa WSW 29.8 km/h 29.8 km/h 71 % 0 mm
15:07 -6.1 °C -9.1 °C 34293.4 hPa WSW 32.8 km/h 32.8 km/h 71 % 0 mm
15:12 -6.1 °C -9.3 °C 34293.4 hPa SW 23.8 km/h 23.8 km/h 70 % 0 mm
15:17 -6.1 °C -9.3 °C 34293.4 hPa West 23.8 km/h 23.8 km/h 69 % 0 mm
15:22 -5.9 °C -9.6 °C 34293.4 hPa West 31.1 km/h 31.1 km/h 66 % 0 mm
15:27 -5.7 °C -9.7 °C 34293.4 hPa West 18.2 km/h 18.2 km/h 64 % 0 mm
15:32 -5.6 °C -9.8 °C 34293.4 hPa West 32.8 km/h 32.8 km/h 62 % 0 mm
15:37 -5.5 °C -9.9 °C 34293.4 hPa WSW 32.8 km/h 32.8 km/h 61 % 0 mm
15:42 -5.5 °C -10.2 °C 34293.4 hPa West 33.6 km/h 33.6 km/h 59 % 0 mm
15:47 -5.5 °C -10.2 °C 34293.4 hPa West 35.7 km/h 35.7 km/h 59 % 0 mm
15:52 -5.4 °C -10.4 °C 34293.4 hPa West 32.8 km/h 32.8 km/h 57 % 0 mm
15:57 -5.4 °C -10.5 °C 34293.4 hPa WSW 26.9 km/h 26.9 km/h 56 % 0 mm
16:02 -5.3 °C -10.6 °C 34303.6 hPa West 36.2 km/h 36.2 km/h 55 % 0 mm
16:07 -5.3 °C -10.6 °C 34303.6 hPa WNW 29.8 km/h 29.8 km/h 55 % 0 mm
16:12 -5.3 °C -10.6 °C 34303.6 hPa West 26.9 km/h 26.9 km/h 55 % 0 mm
16:17 -5.3 °C -10.6 °C 34293.4 hPa West 29.8 km/h 29.8 km/h 55 % 0 mm
16:22 -5.2 °C -10.4 °C 34303.6 hPa West 32.8 km/h 32.8 km/h 56 % 0 mm
16:33 -5.3 °C -10.1 °C 34303.6 hPa NW 29.8 km/h 29.8 km/h 58 % 0 mm
16:38 -5.4 °C -10.2 °C 34303.6 hPa NW 29.8 km/h 29.8 km/h 58 % 0 mm
16:43 -5.4 °C -10.2 °C 34313.7 hPa NW 26.9 km/h 26.9 km/h 58 % 0 mm
16:48 -5.4 °C -10.2 °C 34313.7 hPa WNW 26.9 km/h 26.9 km/h 58 % 0 mm
16:53 -5.4 °C -10.3 °C 34313.7 hPa WNW 23.8 km/h 23.8 km/h 58 % 0 mm
16:58 -5.5 °C -10.3 °C 34313.7 hPa NW 18.2 km/h 18.2 km/h 58 % 0 mm
17:03 -5.5 °C -10.3 °C 34313.7 hPa West 23.8 km/h 23.8 km/h 58 % 0 mm
17:08 -5.6 °C -10.5 °C 34313.7 hPa WNW 29.8 km/h 29.8 km/h 57 % 0 mm
17:09 -5.6 °C -10.4 °C 34313.7 hPa WNW 26.9 km/h 26.9 km/h 58 % 0 mm
17:14 -5.6 °C -10.4 °C 34313.7 hPa West 20.9 km/h 20.9 km/h 58 % 0 mm
17:19 -5.7 °C -10.4 °C 34327.3 hPa West 18.2 km/h 18.2 km/h 58 % 0 mm
17:24 -5.7 °C -10.5 °C 34327.3 hPa West 25.9 km/h 25.9 km/h 58 % 0 mm
17:29 -5.7 °C -10.5 °C 34313.7 hPa West 36.2 km/h 36.2 km/h 58 % 0 mm
17:34 -5.7 °C -10.5 °C 34327.3 hPa West 23.8 km/h 23.8 km/h 58 % 0 mm
17:39 -5.8 °C -10.7 °C 34327.3 hPa West 41.4 km/h 41.4 km/h 57 % 0 mm
17:44 -5.8 °C -10.6 °C 34327.3 hPa West 26.9 km/h 26.9 km/h 58 % 0 mm
17:49 -5.9 °C -10.5 °C 34327.3 hPa WNW 26.9 km/h 26.9 km/h 59 % 0 mm
17:54 -5.9 °C -10.6 °C 34327.3 hPa West 23.8 km/h 23.8 km/h 59 % 0 mm
17:59 -5.9 °C -10.7 °C 34327.3 hPa West 47.6 km/h 47.6 km/h 58 % 0 mm
18:04 -6 °C -10.8 °C 34327.3 hPa West 31.1 km/h 31.1 km/h 58 % 0 mm
18:09 -6.1 °C -11 °C 34337.4 hPa WSW 35.7 km/h 35.7 km/h 57 % 0 mm
18:14 -6.2 °C -11.1 °C 34337.4 hPa West 38.8 km/h 38.8 km/h 57 % 0 mm
18:19 -6.2 °C -11 °C 34337.4 hPa West 32.8 km/h 32.8 km/h 58 % 0 mm
18:24 -6.3 °C -10.9 °C 34347.6 hPa West 17.9 km/h 17.9 km/h 59 % 0 mm
18:29 -6.3 °C -10.9 °C 34347.6 hPa WSW 20.9 km/h 20.9 km/h 59 % 0 mm
18:34 -6.3 °C -10.8 °C 34347.6 hPa West 25.9 km/h 25.9 km/h 60 % 0 mm
18:39 -6.4 °C -10.9 °C 34347.6 hPa West 23.8 km/h 23.8 km/h 60 % 0 mm
18:44 -6.4 °C -10.9 °C 34361.1 hPa WNW 28.5 km/h 28.5 km/h 60 % 0 mm
18:49 -6.5 °C -10.9 °C 34361.1 hPa WSW 26.9 km/h 26.9 km/h 60 % 0 mm
18:54 -6.5 °C -10.8 °C 34361.1 hPa WNW 20.9 km/h 20.9 km/h 61 % 0 mm
18:59 -6.5 °C -10.8 °C 34361.1 hPa West 20.9 km/h 20.9 km/h 61 % 0 mm
19:04 -6.6 °C -10.7 °C 34361.1 hPa West 29.8 km/h 29.8 km/h 62 % 0 mm
19:09 -6.6 °C -10.7 °C 34371.3 hPa West 23.8 km/h 23.8 km/h 62 % 0 mm
19:14 -6.6 °C -10.8 °C 34371.3 hPa West 20.9 km/h 20.9 km/h 62 % 0 mm
19:19 -6.6 °C -10.7 °C 34371.3 hPa West 23.8 km/h 23.8 km/h 63 % 0 mm
19:24 -6.7 °C -10.6 °C 34371.3 hPa West 17.9 km/h 17.9 km/h 64 % 0 mm
19:29 -6.7 °C -10.6 °C 34371.3 hPa West 15 km/h 15 km/h 64 % 0 mm
19:34 -6.8 °C -10.5 °C 34371.3 hPa West 12.9 km/h 12.9 km/h 65 % 0 mm
19:35 -6.8 °C -10.5 °C 34371.3 hPa West 18.2 km/h 18.2 km/h 65 % 0 mm
19:40 -6.8 °C -10.4 °C 34384.8 hPa WSW 9 km/h 9 km/h 66 % 0 mm
19:45 -6.8 °C -10.5 °C 34384.8 hPa WSW 11.9 km/h 11.9 km/h 66 % 0 mm
19:50 -6.9 °C -10.5 °C 34384.8 hPa West 11.9 km/h 11.9 km/h 66 % 0 mm
19:55 -7 °C -10.4 °C 34384.8 hPa West 9 km/h 9 km/h 67 % 0 mm
20:00 -7.1 °C -10.6 °C 34384.8 hPa West 9 km/h 9 km/h 67 % 0 mm
20:05 -7.2 °C -10.6 °C 34384.8 hPa West 9 km/h 9 km/h 68 % 0 mm
20:10 -7.3 °C -10.6 °C 34395 hPa West 5.1 km/h 5.1 km/h 68 % 0 mm
20:15 -7.3 °C -10.5 °C 34395 hPa West 6 km/h 6 km/h 69 % 0 mm
20:20 -7.3 °C -10.5 °C 34395 hPa West 9 km/h 9 km/h 69 % 0 mm
20:25 -7.3 °C -10.5 °C 34395 hPa West 9 km/h 9 km/h 69 % 0 mm
20:30 -7.3 °C -10.4 °C 34395 hPa West 9 km/h 9 km/h 70 % 0 mm
20:35 -7.4 °C -10.5 °C 34395 hPa West 9 km/h 9 km/h 70 % 0 mm
20:40 -7.4 °C -10.6 °C 34395 hPa West 6 km/h 6 km/h 70 % 0 mm
20:45 -7.5 °C -10.4 °C 34395 hPa West 9 km/h 9 km/h 71 % 0 mm
20:50 -7.5 °C -10.4 °C 34395 hPa West 9 km/h 9 km/h 71 % 0 mm
20:55 -7.5 °C -10.4 °C 34395 hPa WNW 9 km/h 9 km/h 71 % 0 mm
21:00 -7.5 °C -10.4 °C 34395 hPa West 15 km/h 15 km/h 71 % 0 mm
21:05 -7.4 °C -10.4 °C 34395 hPa West 12.9 km/h 12.9 km/h 71 % 0 mm
21:10 -7.4 °C -10.4 °C 34395 hPa West 11.9 km/h 11.9 km/h 71 % 0 mm
21:15 -7.3 °C -10.3 °C 34405.1 hPa West 11.9 km/h 11.9 km/h 71 % 0 mm
21:20 -7.3 °C -10.3 °C 34405.1 hPa WSW 10.3 km/h 11.4 km/h 71 % 0 mm
21:25 -7.3 °C -10.2 °C 34405.1 hPa West 15 km/h 15 km/h 72 % 0 mm
21:30 -7.3 °C -10.2 °C 34405.1 hPa WSW 20.9 km/h 20.9 km/h 72 % 0 mm
21:35 -7.4 °C -10.2 °C 34405.1 hPa NE 12.9 km/h 12.9 km/h 72 % 0 mm
21:37 -7.4 °C -10.3 °C 34405.1 hPa NNE 11.9 km/h 11.9 km/h 72 % 0 mm
21:42 -7.8 °C -10.5 °C 34405.1 hPa NNE 9 km/h 9 km/h 73 % 0 mm
21:47 -7.9 °C -10.6 °C 34405.1 hPa North 10.3 km/h 10.3 km/h 74 % 0 mm
21:52 -8.1 °C -10.6 °C 34418.7 hPa North 2.6 km/h 2.6 km/h 75 % 0 mm
21:57 -8.1 °C -10.6 °C 34418.7 hPa North 9 km/h 9 km/h 75 % 0 mm
22:02 -8.1 °C -10.5 °C 34418.7 hPa Calm     76 % 0 mm
22:07 -8.1 °C -10.4 °C 34418.7 hPa North 9 km/h 9 km/h 76 % 0 mm
22:12 -8.1 °C -10.4 °C 34418.7 hPa Calm   1.8 km/h 76 % 0 mm
22:17 -8.1 °C -10.4 °C 34418.7 hPa Calm     76 % 0 mm
22:22 -8.1 °C -10.4 °C 34418.7 hPa North 3.1 km/h 3.1 km/h 76 % 0 mm
22:27 -8 °C -10.4 °C 34418.7 hPa Calm     76 % 0 mm
22:32 -7.9 °C -10.3 °C 34418.7 hPa North 6 km/h 6 km/h 76 % 0 mm
22:37 -7.9 °C -10.1 °C 34418.7 hPa ESE 11.9 km/h 11.9 km/h 78 % 0 mm
22:42 -7.8 °C -10.1 °C 34418.7 hPa ESE 6 km/h 6 km/h 77 % 0 mm
22:47 -7.8 °C -10.1 °C 34428.8 hPa SE 6 km/h 6 km/h 77 % 0 mm
22:52 -7.8 °C -10.1 °C 34428.8 hPa South 9 km/h 9 km/h 77 % 0 mm
22:57 -7.7 °C -10.1 °C 34428.8 hPa WSW 11.9 km/h 11.9 km/h 77 % 0 mm
23:02 -7.7 °C -10 °C 34428.8 hPa WNW 9 km/h 9 km/h 77 % 0 mm
23:07 -7.8 °C -10.1 °C 34428.8 hPa NNW 9 km/h 9 km/h 77 % 0 mm
23:12 -7.9 °C -10.2 °C 34428.8 hPa NNW 6 km/h 6 km/h 77 % 0 mm
23:17 -7.9 °C -10.2 °C 34428.8 hPa NNW 6 km/h 6 km/h 77 % 0 mm
23:22 -7.9 °C -10.1 °C 34428.8 hPa NW 9 km/h 9 km/h 78 % 0 mm
23:27 -8 °C -10.2 °C 34442.4 hPa Calm     78 % 0 mm
23:32 -8.1 °C -10.1 °C 34442.4 hPa North 9 km/h 9 km/h 79 % 0 mm
23:37 -8.2 °C -10.2 °C 34442.4 hPa North 6 km/h 6 km/h 80 % 0 mm
23:42 -8.2 °C -10.2 °C 34442.4 hPa North 6 km/h 6 km/h 80 % 0 mm
23:47 -8.2 °C -10.2 °C 34442.4 hPa North 5.1 km/h 5.1 km/h 80 % 0 mm
23:52 -8.2 °C -10.1 °C 34442.4 hPa NNW 9 km/h 9 km/h 81 % 0 mm
23:57 -8.2 °C -9.9 °C 34442.4 hPa SW 15 km/h 15 km/h 81 % 0 mm
Puerto Banus, Marbella
Elogios de Weather Underground - 2.5 mb

Guión original por  Jim McMurry - jmcmurry@mwt.net Adaptado para la plantilla por  Wim van der Kuil - Leuven-Template.eu

Usted encontrará nuestra información del tiempo también en:

Weather Underground

Iberian Peninsula Weather Network